Estillfork, AL

2:48 PM CDT on August 20, 2017 (GMT -0500)
Whites Gap, Huntland | | Change Station

Elev 1061 ft 35.01 °N, 86.27 °W | Updated 15 seconds ago

Partly Cloudy
Partly Cloudy
92.8 °F
Feels Like 102 °F
N
0.9
Wind Variable Wind from East
Gusts 5.0 mph

Today
High -- | Low -- °F
--% Chance of Precip.
Yesterday
High -- | Low -- °F
Precip. -- in
Pressure 30.08 in
Visibility 10.0 miles
Clouds Clear
Heat Index 102 °F
Dew Point 73 °F
Humidity 53%
Rainfall 0.00 in
Snow Depth Not available.
6:08 AM 7:26 PM
Waning Crescent, 1% visible
METAR K4A6 201915Z AUTO 11003KT 10SM CLR 33/19 A3008 RMK AO2
Pressure 30.08 in
Visibility 10.0 miles
Clouds Clear
Heat Index 102 °F
Dew Point 73 °F
Humidity 53%
Rainfall 0.00 in
Snow Depth Not available.
6:08 AM 7:26 PM
Waning Crescent, 1% visible
METAR K4A6 201915Z AUTO 11003KT 10SM CLR 33/19 A3008 RMK AO2

Get Severe Weather Alerts

Thanks for signing up!

Be on the lookout for a verification email in your inbox.

You'll start receiving the daily forecast at 6 AM.

×

10-Day Weather Forecast

Almanac

Astronomy

Aug. 20, 2017 Rise Set
Actual Time
Civil Twilight
Nautical Twilight
Astronomical Twilight
Moon
Length of Visible Light
Length of Day
Tomorrow will be .
, % of the Moon is Illuminated

Today's Extremes

State Highs State Lows

Community

WunderPhotos

Category 6

Welcome to Category 6. This is the collective home for Weather Underground's featured writeups by Dr. Jeff Masters (right), Bob Henson (left), Chris Burt, and other regular contributors.

Nearby

Air Quality

  Air Quality AQ Index Pollutant
Not available.

Snow Depth

Station Depth Elevation

Earthquake Activity

City Distance Mag. Time & Date
Minimum magnitude displayed is 2.5.

Coastal Water Temperatures

Place Temperature

Stations

Nearby Weather Stations

Station Location Temp. Windchill Dew Point Humidity Wind Precip. Elev Updated Type
                   

Watches & Warnings

There are currently no watches in effect.